createdAt,value
2023-05-19T04:00:28.831Z,29.32
2023-05-19T04:00:34.469Z,29.79
2023-05-19T04:00:39.979Z,29.57
2023-05-19T04:00:45.164Z,29.48
2023-05-19T04:00:50.392Z,29.40
2023-05-19T04:00:55.608Z,29.35
2023-05-19T04:01:31.618Z,29.26
2023-05-19T04:01:36.842Z,29.25
2023-05-19T04:01:42.076Z,29.22
2023-05-19T04:01:47.271Z,29.24
2023-05-19T04:01:52.566Z,29.25
2023-05-19T04:01:57.928Z,29.26
2023-05-19T04:02:34.157Z,29.15
2023-05-19T04:02:39.377Z,29.10
2023-05-19T04:02:44.740Z,29.10
2023-05-19T04:02:50.081Z,29.15
2023-05-19T04:02:55.373Z,29.07
2023-05-19T04:03:00.763Z,29.04
2023-05-19T04:03:36.916Z,29.04
2023-05-19T04:03:42.200Z,29.06
2023-05-19T04:03:47.438Z,29.04
2023-05-19T04:03:52.612Z,29.04
2023-05-19T04:03:57.852Z,29.05
2023-05-19T04:04:03.071Z,29.11
2023-05-19T04:04:39.162Z,29.02
2023-05-19T04:04:44.407Z,29.01
2023-05-19T04:04:49.742Z,28.98
2023-05-19T04:04:55.098Z,28.92
2023-05-19T04:05:00.397Z,28.92
2023-05-19T04:05:05.604Z,28.92
2023-05-19T04:05:41.576Z,28.91
2023-05-19T04:05:46.770Z,28.93
2023-05-19T04:05:52.042Z,28.92
2023-05-19T04:05:57.235Z,28.89
2023-05-19T04:06:02.446Z,28.86
2023-05-19T04:06:07.632Z,28.86
2023-05-19T04:06:43.800Z,28.98
2023-05-19T04:06:49.019Z,28.97
2023-05-19T04:06:54.224Z,28.92
2023-05-19T04:06:59.427Z,28.93
2023-05-19T04:07:04.661Z,28.93
2023-05-19T04:07:09.859Z,28.92
2023-05-19T04:07:45.866Z,28.78
2023-05-19T04:07:51.083Z,28.82
2023-05-19T04:07:56.281Z,28.82
2023-05-19T04:08:01.485Z,28.77
2023-05-19T04:08:06.682Z,28.86
2023-05-19T04:08:11.890Z,28.89
2023-05-19T04:08:47.875Z,28.61
2023-05-19T04:08:53.074Z,28.56
2023-05-19T04:08:58.285Z,28.61
2023-05-19T04:09:03.491Z,28.56
2023-05-19T04:09:08.708Z,28.58
2023-05-19T04:09:13.918Z,28.53
2023-05-19T04:09:49.950Z,28.57
2023-05-19T04:09:55.143Z,28.62
2023-05-19T04:10:00.366Z,28.60
2023-05-19T04:10:05.574Z,28.55
2023-05-19T04:10:10.786Z,28.51
2023-05-19T04:10:16.008Z,28.53
2023-05-19T04:10:52.003Z,28.51
2023-05-19T04:10:57.192Z,28.57
2023-05-19T04:11:02.407Z,28.52
2023-05-19T04:11:07.596Z,28.57
2023-05-19T04:11:12.818Z,28.59
2023-05-19T04:11:18.029Z,28.62
2023-05-19T04:11:53.976Z,28.43
2023-05-19T04:11:59.185Z,28.50
2023-05-19T04:12:04.392Z,28.46
2023-05-19T04:12:09.604Z,28.46
2023-05-19T04:12:14.835Z,28.41
2023-05-19T04:12:20.066Z,28.46
2023-05-19T04:12:56.077Z,28.51
2023-05-19T04:13:01.270Z,28.50
2023-05-19T04:13:06.466Z,28.53
2023-05-19T04:13:11.697Z,28.50
2023-05-19T04:13:16.899Z,28.46
2023-05-19T04:13:22.100Z,28.49
2023-05-19T04:13:58.106Z,28.26
2023-05-19T04:14:03.320Z,28.22
2023-05-19T04:14:08.528Z,28.22
2023-05-19T04:14:13.736Z,28.31
2023-05-19T04:14:18.947Z,28.29
2023-05-19T04:14:24.170Z,28.38
2023-05-19T04:15:00.240Z,28.38
2023-05-19T04:15:05.461Z,28.39
2023-05-19T04:15:10.688Z,28.43
2023-05-19T04:15:15.887Z,28.45
2023-05-19T04:15:21.106Z,28.45
2023-05-19T04:15:26.306Z,28.35
2023-05-19T04:16:02.304Z,28.41
2023-05-19T04:16:07.535Z,28.38
2023-05-19T04:16:12.799Z,28.31
2023-05-19T04:16:18.107Z,28.33
2023-05-19T04:16:23.406Z,28.34
2023-05-19T04:16:28.882Z,28.31
2023-05-19T04:17:05.099Z,28.56
2023-05-19T04:17:10.322Z,28.53
2023-05-19T04:17:15.531Z,28.57
2023-05-19T04:17:20.732Z,28.58
2023-05-19T04:17:25.970Z,28.66
2023-05-19T04:17:31.197Z,28.69
2023-05-19T04:18:07.185Z,28.60
2023-05-19T04:18:12.488Z,28.59
2023-05-19T04:18:17.662Z,28.59
2023-05-19T04:18:22.861Z,28.61
2023-05-19T04:18:29.204Z,28.65
2023-05-19T04:18:34.651Z,28.62
2023-05-19T04:19:10.796Z,28.63
2023-05-19T04:19:16.026Z,28.65
2023-05-19T04:19:21.619Z,28.65
2023-05-19T04:19:26.947Z,28.65
2023-05-19T04:19:32.226Z,28.61
2023-05-19T04:19:37.446Z,28.63
2023-05-19T04:20:13.480Z,28.58
2023-05-19T04:20:18.705Z,28.53
2023-05-19T04:20:23.896Z,28.55
2023-05-19T04:20:29.131Z,28.54
2023-05-19T04:20:34.536Z,28.55
2023-05-19T04:20:39.875Z,28.57
2023-05-19T04:21:15.918Z,28.69
2023-05-19T04:21:21.114Z,28.71
2023-05-19T04:21:26.311Z,28.77
2023-05-19T04:21:31.518Z,28.75
2023-05-19T04:21:36.739Z,28.76
2023-05-19T04:21:41.955Z,28.74
2023-05-19T04:22:18.062Z,28.58
2023-05-19T04:22:23.265Z,28.57
2023-05-19T04:22:28.479Z,28.58
2023-05-19T04:22:33.697Z,28.60
2023-05-19T04:22:38.911Z,28.58
2023-05-19T04:22:44.127Z,28.61
2023-05-19T04:23:20.132Z,28.57
2023-05-19T04:23:25.334Z,28.57
2023-05-19T04:23:30.520Z,28.49
2023-05-19T04:23:35.731Z,28.44
2023-05-19T04:23:40.912Z,28.48
2023-05-19T04:23:46.101Z,28.44
2023-05-19T04:24:22.185Z,28.40
2023-05-19T04:24:27.377Z,28.41
2023-05-19T04:24:32.563Z,28.41
2023-05-19T04:24:37.772Z,28.39
2023-05-19T04:24:42.987Z,28.42
2023-05-19T04:24:48.182Z,28.46
2023-05-19T04:25:24.185Z,28.65
2023-05-19T04:25:29.405Z,28.60
2023-05-19T04:25:34.598Z,28.59
2023-05-19T04:25:39.795Z,28.61
2023-05-19T04:25:44.989Z,28.56
2023-05-19T04:25:50.190Z,28.55
2023-05-19T04:26:26.237Z,28.57
2023-05-19T04:26:31.445Z,28.59
2023-05-19T04:26:36.655Z,28.63
2023-05-19T04:26:42.602Z,28.60
2023-05-19T04:26:47.802Z,28.67
2023-05-19T04:26:52.998Z,28.64
2023-05-19T04:27:29.069Z,28.71
2023-05-19T04:27:34.233Z,28.73
2023-05-19T04:27:39.446Z,28.74
2023-05-19T04:27:44.668Z,28.71
2023-05-19T04:27:49.876Z,28.71
2023-05-19T04:27:55.175Z,28.77
2023-05-19T04:28:31.262Z,28.76
2023-05-19T04:28:36.461Z,28.83
2023-05-19T04:28:41.660Z,28.83
2023-05-19T04:28:46.872Z,28.75
2023-05-19T04:28:52.073Z,28.79
2023-05-19T04:28:57.278Z,28.78
2023-05-19T04:29:33.361Z,28.84
2023-05-19T04:29:38.577Z,28.84
2023-05-19T04:29:43.801Z,28.88
2023-05-19T04:29:49.021Z,28.90
2023-05-19T04:29:54.215Z,28.98
2023-05-19T04:29:59.425Z,29.00
2023-05-19T04:30:35.524Z,29.03
2023-05-19T04:30:40.729Z,29.04
2023-05-19T04:30:45.951Z,29.10
2023-05-19T04:30:51.192Z,29.08
2023-05-19T04:30:56.381Z,29.08
2023-05-19T04:31:01.577Z,29.05
2023-05-19T04:31:37.739Z,28.91
2023-05-19T04:31:43.056Z,28.85
2023-05-19T04:31:48.262Z,28.86
2023-05-19T04:31:53.466Z,28.83
2023-05-19T04:31:58.675Z,28.79
2023-05-19T04:32:03.882Z,28.79
2023-05-19T04:32:39.987Z,28.73
2023-05-19T04:32:45.278Z,28.76
2023-05-19T04:32:50.473Z,28.75
2023-05-19T04:32:55.692Z,28.72
2023-05-19T04:33:00.927Z,28.71
2023-05-19T04:33:06.201Z,28.76
2023-05-19T04:33:42.260Z,28.62
2023-05-19T04:33:47.465Z,28.64
2023-05-19T04:33:52.660Z,28.69
2023-05-19T04:33:57.860Z,28.67
2023-05-19T04:34:03.084Z,28.62
2023-05-19T04:34:08.266Z,28.62
2023-05-19T04:34:44.245Z,28.56
2023-05-19T04:34:49.447Z,28.56
2023-05-19T04:34:54.658Z,28.53
2023-05-19T04:34:59.869Z,28.54
2023-05-19T04:35:05.074Z,28.51
2023-05-19T04:35:10.396Z,28.53
2023-05-19T04:35:46.375Z,28.52
2023-05-19T04:35:51.587Z,28.55
2023-05-19T04:35:56.777Z,28.57
2023-05-19T04:36:01.994Z,28.54
2023-05-19T04:36:07.216Z,28.50
2023-05-19T04:36:12.433Z,28.53
2023-05-19T04:36:49.902Z,28.46
2023-05-19T04:36:56.868Z,28.46
2023-05-19T04:37:02.065Z,28.40
2023-05-19T04:37:07.287Z,28.39
2023-05-19T04:37:12.505Z,28.38
2023-05-19T04:37:17.688Z,28.38
2023-05-19T04:37:48.600Z,28.37
2023-05-19T04:37:58.923Z,28.37
2023-05-19T04:38:04.141Z,28.24
2023-05-19T04:38:09.334Z,28.19
2023-05-19T04:38:14.548Z,28.15
2023-05-19T04:38:19.753Z,28.16
2023-05-19T04:38:50.612Z,28.15
2023-05-19T04:39:00.962Z,28.12
2023-05-19T04:39:06.180Z,28.18
2023-05-19T04:39:11.395Z,28.18
2023-05-19T04:39:16.587Z,28.15
2023-05-19T04:39:21.769Z,28.11
2023-05-19T04:39:52.707Z,28.02
2023-05-19T04:40:03.064Z,28.04
2023-05-19T04:40:08.251Z,28.02
2023-05-19T04:40:13.464Z,27.99
2023-05-19T04:40:18.650Z,27.87
2023-05-19T04:40:23.898Z,27.90
2023-05-19T04:40:54.715Z,27.97
2023-05-19T04:41:05.059Z,28.04
2023-05-19T04:41:10.276Z,27.94
2023-05-19T04:41:15.466Z,27.91
2023-05-19T04:41:20.683Z,27.92
2023-05-19T04:41:25.909Z,27.87
2023-05-19T04:41:56.874Z,27.81
2023-05-19T04:42:07.296Z,27.73
2023-05-19T04:42:12.500Z,27.68
2023-05-19T04:42:17.717Z,27.72
2023-05-19T04:42:22.969Z,27.77
2023-05-19T04:42:28.174Z,27.80
2023-05-19T04:42:59.081Z,27.76
2023-05-19T04:43:09.417Z,27.70
2023-05-19T04:43:14.622Z,27.69
2023-05-19T04:43:19.802Z,27.71
2023-05-19T04:43:25.001Z,27.72
2023-05-19T04:43:30.208Z,27.75
2023-05-19T04:44:01.241Z,27.62
2023-05-19T04:44:11.581Z,27.58
2023-05-19T04:44:16.772Z,27.65
2023-05-19T04:44:21.976Z,27.68
2023-05-19T04:44:27.198Z,27.64
2023-05-19T04:44:32.379Z,27.61
2023-05-19T04:45:03.259Z,27.52
2023-05-19T04:45:13.597Z,27.42
2023-05-19T04:45:18.814Z,27.42
2023-05-19T04:45:23.999Z,27.46
2023-05-19T04:45:29.217Z,27.47
2023-05-19T04:45:34.427Z,27.48
2023-05-19T04:46:05.332Z,27.54
2023-05-19T04:46:15.705Z,27.46
2023-05-19T04:46:20.891Z,27.37
2023-05-19T04:46:26.148Z,27.39
2023-05-19T04:46:31.372Z,27.40
2023-05-19T04:46:36.594Z,27.42
2023-05-19T04:47:07.616Z,27.44
2023-05-19T04:47:17.982Z,27.47
2023-05-19T04:47:23.206Z,27.53
2023-05-19T04:47:28.444Z,27.47
2023-05-19T04:47:33.667Z,27.52
2023-05-19T04:47:38.907Z,27.57
2023-05-19T04:48:09.824Z,27.52
2023-05-19T04:48:20.171Z,27.44
2023-05-19T04:48:25.355Z,27.38
2023-05-19T04:48:30.562Z,27.37
2023-05-19T04:48:35.775Z,27.34
2023-05-19T04:48:40.968Z,27.34
2023-05-19T04:49:11.907Z,27.47
2023-05-19T04:49:22.225Z,27.45
2023-05-19T04:49:27.441Z,27.41
2023-05-19T04:49:32.645Z,27.46
2023-05-19T04:49:37.855Z,27.47
2023-05-19T04:49:43.098Z,27.47
2023-05-19T04:50:13.923Z,27.39
2023-05-19T04:50:24.249Z,27.38
2023-05-19T04:50:29.526Z,27.43
2023-05-19T04:50:35.004Z,27.47
2023-05-19T04:50:40.307Z,27.40
2023-05-19T04:50:45.508Z,27.44
2023-05-19T04:51:16.515Z,27.24
2023-05-19T04:51:26.876Z,27.25
2023-05-19T04:51:32.085Z,27.19
2023-05-19T04:51:37.292Z,27.22
2023-05-19T04:51:42.497Z,27.15
2023-05-19T04:51:47.707Z,27.13
2023-05-19T04:52:18.577Z,27.19
2023-05-19T04:52:28.912Z,27.16
2023-05-19T04:52:34.127Z,27.23
2023-05-19T04:52:39.309Z,27.19
2023-05-19T04:52:44.514Z,27.17
2023-05-19T04:52:49.725Z,27.14
2023-05-19T04:53:20.567Z,27.16
2023-05-19T04:53:30.924Z,27.09
2023-05-19T04:53:36.149Z,27.06
2023-05-19T04:53:41.365Z,27.04
2023-05-19T04:53:46.542Z,27.08
2023-05-19T04:53:51.734Z,27.07
2023-05-19T04:54:22.611Z,27.07
2023-05-19T04:54:32.969Z,26.99
2023-05-19T04:54:38.187Z,27.07
2023-05-19T04:54:43.393Z,27.02
2023-05-19T04:54:48.600Z,27.04
2023-05-19T04:54:53.798Z,26.99
2023-05-19T04:55:24.729Z,27.09
2023-05-19T04:55:35.045Z,27.00
2023-05-19T04:55:40.261Z,27.03
2023-05-19T04:55:45.453Z,27.02
2023-05-19T04:55:50.629Z,27.02
2023-05-19T04:55:55.811Z,26.97
2023-05-19T04:56:26.718Z,26.89
2023-05-19T04:56:37.065Z,27.00
2023-05-19T04:56:42.261Z,26.93
2023-05-19T04:56:47.483Z,26.95
2023-05-19T04:56:52.711Z,27.02
2023-05-19T04:56:57.917Z,26.99
2023-05-19T04:57:28.830Z,27.08
2023-05-19T04:57:39.199Z,27.00
2023-05-19T04:57:44.407Z,26.96
2023-05-19T04:57:49.585Z,26.95
2023-05-19T04:57:54.789Z,26.92
2023-05-19T04:57:59.993Z,26.92
2023-05-19T04:58:30.860Z,26.92
2023-05-19T04:58:41.960Z,26.90
2023-05-19T04:58:47.219Z,26.92
2023-05-19T04:58:52.419Z,26.90
2023-05-19T04:58:57.630Z,26.89
2023-05-19T04:59:02.831Z,26.93
2023-05-19T04:59:33.684Z,26.91
2023-05-19T04:59:44.053Z,26.94
2023-05-19T04:59:49.239Z,26.95
2023-05-19T04:59:54.441Z,27.00
2023-05-19T04:59:59.644Z,26.98
2023-05-19T05:00:04.900Z,26.95
2023-05-19T05:00:35.887Z,27.01
2023-05-19T05:00:46.294Z,27.07
2023-05-19T05:00:51.491Z,27.07
2023-05-19T05:00:56.874Z,27.04
2023-05-19T05:01:02.119Z,26.99
2023-05-19T05:01:07.330Z,26.97
2023-05-19T05:01:38.335Z,27.03
2023-05-19T05:01:48.703Z,26.94
2023-05-19T05:01:53.921Z,26.93
2023-05-19T05:01:59.198Z,26.92
2023-05-19T05:02:04.405Z,26.96
2023-05-19T05:02:09.655Z,26.99
2023-05-19T05:02:40.532Z,27.01
2023-05-19T05:02:50.962Z,26.98
2023-05-19T05:02:56.345Z,27.03
2023-05-19T05:03:01.685Z,27.02
2023-05-19T05:03:07.032Z,27.01
2023-05-19T05:03:12.414Z,27.06
2023-05-19T05:03:43.386Z,27.04
2023-05-19T05:03:53.882Z,27.03
2023-05-19T05:03:59.310Z,27.07
2023-05-19T05:04:04.745Z,27.11
2023-05-19T05:04:09.984Z,27.07
2023-05-19T05:04:15.270Z,27.00
2023-05-19T05:04:46.107Z,26.91
2023-05-19T05:04:56.437Z,26.93
2023-05-19T05:05:01.686Z,26.94
2023-05-19T05:05:06.907Z,26.91
2023-05-19T05:05:12.137Z,26.89
2023-05-19T05:05:17.373Z,26.90
2023-05-19T05:05:48.197Z,27.01
2023-05-19T05:05:58.571Z,27.01
2023-05-19T05:06:03.769Z,27.01
2023-05-19T05:06:08.972Z,27.03
2023-05-19T05:06:14.199Z,27.01
2023-05-19T05:06:19.408Z,27.02
2023-05-19T05:06:50.347Z,26.97
2023-05-19T05:07:00.700Z,26.94
2023-05-19T05:07:05.905Z,26.86
2023-05-19T05:07:11.138Z,26.89
2023-05-19T05:07:16.346Z,26.93
2023-05-19T05:07:21.547Z,26.87
2023-05-19T05:07:52.426Z,26.90
2023-05-19T05:08:02.778Z,26.91
2023-05-19T05:08:08.004Z,26.85
2023-05-19T05:08:13.230Z,26.87
2023-05-19T05:08:18.436Z,26.88
2023-05-19T05:08:23.648Z,26.87
2023-05-19T05:08:54.522Z,26.93
2023-05-19T05:09:04.990Z,26.83
2023-05-19T05:09:10.164Z,26.77
2023-05-19T05:09:15.367Z,26.80
2023-05-19T05:09:20.584Z,26.80
2023-05-19T05:09:25.778Z,26.73
2023-05-19T05:09:56.632Z,26.95
2023-05-19T05:10:06.991Z,26.91
2023-05-19T05:10:12.218Z,26.89
2023-05-19T05:10:17.418Z,26.90
2023-05-19T05:10:22.622Z,26.89
2023-05-19T05:10:27.838Z,26.91
2023-05-19T05:10:58.701Z,27.01
2023-05-19T05:11:09.058Z,27.10
2023-05-19T05:11:14.237Z,27.10
2023-05-19T05:11:19.447Z,27.11
2023-05-19T05:11:24.775Z,27.07
2023-05-19T05:11:29.995Z,27.06
2023-05-19T05:12:00.929Z,27.00
2023-05-19T05:12:11.238Z,26.98
2023-05-19T05:12:16.445Z,26.95
2023-05-19T05:12:21.686Z,27.04
2023-05-19T05:12:26.877Z,27.06
2023-05-19T05:12:32.091Z,26.98
2023-05-19T05:13:03.036Z,26.81
2023-05-19T05:13:13.350Z,26.82
2023-05-19T05:13:18.551Z,26.81
2023-05-19T05:13:23.757Z,26.90
2023-05-19T05:13:28.953Z,26.93
2023-05-19T05:13:34.155Z,26.95
2023-05-19T05:14:05.126Z,26.87
2023-05-19T05:14:15.492Z,26.93
2023-05-19T05:14:20.678Z,27.00
2023-05-19T05:14:25.869Z,27.10
2023-05-19T05:14:31.071Z,27.05
2023-05-19T05:14:36.281Z,27.04
2023-05-19T05:15:07.142Z,26.84
2023-05-19T05:15:17.459Z,26.89
2023-05-19T05:15:22.637Z,26.84
2023-05-19T05:15:27.834Z,26.84
2023-05-19T05:15:33.017Z,26.80
2023-05-19T05:15:38.241Z,26.80
2023-05-19T05:16:09.170Z,26.75
2023-05-19T05:16:19.522Z,26.79
2023-05-19T05:16:24.737Z,26.73
2023-05-19T05:16:29.975Z,26.75
2023-05-19T05:16:35.320Z,26.80
2023-05-19T05:16:40.519Z,26.76
2023-05-19T05:17:11.420Z,26.77
2023-05-19T05:17:21.759Z,26.79
2023-05-19T05:17:26.973Z,26.84
2023-05-19T05:17:32.188Z,26.90
2023-05-19T05:17:37.391Z,26.89
2023-05-19T05:17:42.612Z,26.87
2023-05-19T05:18:13.467Z,27.09
2023-05-19T05:18:23.819Z,27.06
2023-05-19T05:18:29.025Z,27.13
2023-05-19T05:18:34.243Z,27.07
2023-05-19T05:18:39.676Z,27.07
2023-05-19T05:18:45.601Z,27.06
2023-05-19T05:19:16.481Z,27.00
2023-05-19T05:19:26.873Z,27.06
2023-05-19T05:19:32.116Z,27.13
2023-05-19T05:19:37.308Z,27.17
2023-05-19T05:19:42.515Z,27.14
2023-05-19T05:19:47.733Z,27.14
2023-05-19T05:20:18.664Z,27.35
2023-05-19T05:20:29.016Z,27.42
2023-05-19T05:20:34.427Z,27.42
2023-05-19T05:20:39.694Z,27.41
2023-05-19T05:20:44.906Z,27.44
2023-05-19T05:20:50.123Z,27.47
2023-05-19T05:21:21.017Z,27.53
2023-05-19T05:21:31.338Z,27.51
2023-05-19T05:21:36.558Z,27.45
2023-05-19T05:21:41.776Z,27.49
2023-05-19T05:21:46.931Z,27.50
2023-05-19T05:21:52.301Z,27.50
2023-05-19T05:22:23.260Z,27.48
2023-05-19T05:22:33.605Z,27.54
2023-05-19T05:22:38.827Z,27.47
2023-05-19T05:22:44.005Z,27.48
2023-05-19T05:22:49.195Z,27.50
2023-05-19T05:22:54.375Z,27.55
2023-05-19T05:23:25.318Z,27.56
2023-05-19T05:23:35.616Z,27.54
2023-05-19T05:23:40.820Z,27.50
2023-05-19T05:23:46.063Z,27.51
2023-05-19T05:23:51.248Z,27.51
2023-05-19T05:23:56.444Z,27.55
2023-05-19T05:24:27.343Z,27.54
2023-05-19T05:24:37.707Z,27.59
2023-05-19T05:24:42.885Z,27.55
2023-05-19T05:24:48.158Z,27.52
2023-05-19T05:24:53.345Z,27.49
2023-05-19T05:24:58.555Z,27.56
2023-05-19T05:25:29.435Z,27.55
2023-05-19T05:25:39.807Z,27.62
2023-05-19T05:25:45.001Z,27.66
2023-05-19T05:25:50.207Z,27.65
2023-05-19T05:25:55.435Z,27.55
2023-05-19T05:26:00.662Z,27.55
2023-05-19T05:26:31.590Z,27.57
2023-05-19T05:26:41.956Z,27.52
2023-05-19T05:26:47.137Z,27.51
2023-05-19T05:26:52.349Z,27.46
2023-05-19T05:26:57.533Z,27.41
2023-05-19T05:27:02.735Z,27.39
2023-05-19T05:27:33.642Z,27.30
2023-05-19T05:27:43.976Z,27.32
2023-05-19T05:27:49.179Z,27.32
2023-05-19T05:27:54.376Z,27.23
2023-05-19T05:27:59.573Z,27.17
2023-05-19T05:28:04.785Z,27.11
2023-05-19T05:28:35.722Z,27.11
2023-05-19T05:28:46.073Z,27.18
2023-05-19T05:28:51.260Z,27.09
2023-05-19T05:28:56.463Z,27.04
2023-05-19T05:29:01.681Z,27.06
2023-05-19T05:29:06.882Z,27.11
2023-05-19T05:29:37.805Z,27.16
2023-05-19T05:29:48.186Z,26.95
2023-05-19T05:29:53.380Z,26.96
2023-05-19T05:29:59.284Z,26.96
2023-05-19T05:30:04.548Z,27.09
2023-05-19T05:30:09.733Z,27.02
2023-05-19T05:30:40.612Z,27.05
2023-05-19T05:30:50.947Z,27.14
2023-05-19T05:30:56.157Z,27.10
2023-05-19T05:31:01.375Z,27.07
2023-05-19T05:31:06.591Z,27.05
2023-05-19T05:31:11.788Z,26.96
2023-05-19T05:31:42.687Z,27.23
2023-05-19T05:31:53.002Z,27.33
2023-05-19T05:31:58.267Z,27.32
2023-05-19T05:32:03.513Z,27.25
2023-05-19T05:32:08.780Z,27.23
2023-05-19T05:32:14.018Z,27.22
2023-05-19T05:32:44.974Z,27.24
2023-05-19T05:32:55.448Z,27.20
2023-05-19T05:33:00.751Z,27.15
2023-05-19T05:33:06.069Z,27.12
2023-05-19T05:33:11.393Z,27.11
2023-05-19T05:33:16.695Z,27.08
2023-05-19T05:33:47.777Z,27.13
2023-05-19T05:33:58.118Z,27.29
2023-05-19T05:34:03.310Z,27.27
2023-05-19T05:34:08.529Z,27.23
2023-05-19T05:34:13.736Z,27.24
2023-05-19T05:34:18.960Z,27.20
2023-05-19T05:34:49.836Z,27.34
2023-05-19T05:35:00.211Z,27.40
2023-05-19T05:35:05.409Z,27.40
2023-05-19T05:35:10.631Z,27.35
2023-05-19T05:35:15.837Z,27.33
2023-05-19T05:35:21.033Z,27.26
2023-05-19T05:35:51.918Z,27.10
2023-05-19T05:36:02.295Z,27.21
2023-05-19T05:36:07.498Z,27.18
2023-05-19T05:36:12.699Z,27.18
2023-05-19T05:36:17.917Z,27.17
2023-05-19T05:36:23.120Z,27.14
2023-05-19T05:36:53.954Z,27.14
2023-05-19T05:37:04.273Z,27.23
2023-05-19T05:37:09.467Z,27.23
2023-05-19T05:37:15.437Z,27.24
2023-05-19T05:37:20.669Z,27.28
2023-05-19T05:37:25.861Z,27.34
2023-05-19T05:37:56.809Z,27.21
2023-05-19T05:38:07.160Z,27.00
2023-05-19T05:38:12.386Z,27.04
2023-05-19T05:38:17.586Z,27.01
2023-05-19T05:38:22.808Z,27.02
2023-05-19T05:38:28.011Z,27.09
2023-05-19T05:38:58.840Z,27.19
2023-05-19T05:39:09.197Z,27.31
2023-05-19T05:39:14.408Z,27.37
2023-05-19T05:39:19.621Z,27.28
2023-05-19T05:39:24.824Z,27.23
2023-05-19T05:39:30.029Z,27.27
2023-05-19T05:40:00.958Z,27.51
2023-05-19T05:40:11.300Z,27.53
2023-05-19T05:40:16.500Z,27.44
2023-05-19T05:40:21.716Z,27.45
2023-05-19T05:40:26.937Z,27.48
2023-05-19T05:40:32.146Z,27.44
2023-05-19T05:41:02.996Z,27.65
2023-05-19T05:41:13.365Z,27.58
2023-05-19T05:41:18.574Z,27.56
2023-05-19T05:41:23.803Z,27.58
2023-05-19T05:41:29.017Z,27.58
2023-05-19T05:41:34.214Z,27.62
2023-05-19T05:42:05.206Z,27.76
2023-05-19T05:42:15.491Z,27.83
2023-05-19T05:42:20.685Z,27.83
2023-05-19T05:42:27.596Z,27.79
2023-05-19T05:42:34.097Z,27.77
2023-05-19T05:42:39.289Z,27.79
2023-05-19T05:43:10.190Z,27.95
2023-05-19T05:43:20.550Z,27.97
2023-05-19T05:43:25.752Z,28.01
2023-05-19T05:43:30.940Z,28.06
2023-05-19T05:43:36.116Z,28.02
2023-05-19T05:43:41.336Z,27.96
2023-05-19T05:44:12.204Z,28.06
2023-05-19T05:44:22.533Z,28.00
2023-05-19T05:44:27.717Z,27.97
2023-05-19T05:44:32.900Z,27.98
2023-05-19T05:44:38.093Z,28.06
2023-05-19T05:44:43.292Z,28.12
2023-05-19T05:45:14.205Z,28.09
2023-05-19T05:45:24.544Z,28.09
2023-05-19T05:45:29.848Z,28.01
2023-05-19T05:45:35.152Z,28.09
2023-05-19T05:45:40.387Z,28.17
2023-05-19T05:45:45.579Z,28.19
2023-05-19T05:46:16.534Z,28.28
2023-05-19T05:46:26.962Z,28.28
2023-05-19T05:46:32.372Z,28.29
2023-05-19T05:46:37.672Z,28.34
2023-05-19T05:46:42.875Z,28.28
2023-05-19T05:46:48.068Z,28.29
2023-05-19T05:47:18.966Z,28.51
2023-05-19T05:47:29.339Z,28.54
2023-05-19T05:47:34.533Z,28.53
2023-05-19T05:47:39.832Z,28.52
2023-05-19T05:47:45.032Z,28.50
2023-05-19T05:47:50.258Z,28.48
2023-05-19T05:48:21.229Z,28.63
2023-05-19T05:48:31.596Z,28.62
2023-05-19T05:48:36.819Z,28.51
2023-05-19T05:48:42.116Z,28.44
2023-05-19T05:48:47.305Z,28.38
2023-05-19T05:48:52.506Z,28.34
2023-05-19T05:49:23.378Z,28.55
2023-05-19T05:49:33.712Z,28.60
2023-05-19T05:49:38.903Z,28.64
2023-05-19T05:49:44.110Z,28.60
2023-05-19T05:49:49.924Z,28.59
2023-05-19T05:49:56.742Z,28.66
2023-05-19T05:50:27.645Z,28.72
2023-05-19T05:50:37.947Z,28.68
2023-05-19T05:50:43.151Z,28.78
2023-05-19T05:50:48.361Z,28.74
2023-05-19T05:50:53.579Z,28.73
2023-05-19T05:50:58.809Z,28.75
2023-05-19T05:51:29.725Z,28.64
2023-05-19T05:51:40.705Z,28.72
2023-05-19T05:52:01.516Z,28.77
2023-05-19T05:53:06.019Z,29.10
2023-05-19T05:53:11.222Z,29.37
2023-05-19T05:53:16.467Z,29.13
2023-05-19T05:53:21.694Z,29.01
2023-05-19T05:53:26.908Z,28.95
2023-05-19T05:53:32.107Z,28.91
2023-05-19T05:54:08.076Z,28.70
2023-05-19T05:54:13.287Z,28.69
2023-05-19T05:54:18.489Z,28.69
2023-05-19T05:54:23.695Z,28.73
2023-05-19T05:54:28.899Z,28.74
2023-05-19T05:54:34.123Z,28.67
2023-05-19T05:55:10.207Z,28.67
2023-05-19T05:55:15.407Z,28.58
2023-05-19T05:55:20.625Z,28.63
2023-05-19T05:55:25.846Z,28.68
2023-05-19T05:55:31.453Z,28.72
2023-05-19T05:55:36.841Z,28.73
2023-05-19T05:56:12.856Z,28.67
2023-05-19T05:56:18.073Z,28.65
2023-05-19T05:56:23.280Z,28.63
2023-05-19T05:56:28.494Z,28.63
2023-05-19T05:56:33.720Z,28.59
2023-05-19T05:56:38.928Z,28.63
2023-05-19T05:57:14.898Z,28.83
2023-05-19T05:57:20.093Z,28.86
2023-05-19T05:57:25.285Z,28.85
2023-05-19T05:57:30.499Z,28.93
2023-05-19T05:57:35.723Z,29.02
2023-05-19T05:57:40.941Z,29.06
2023-05-19T05:58:17.086Z,29.04
2023-05-19T05:58:22.296Z,28.99
2023-05-19T05:58:27.489Z,29.01
2023-05-19T05:58:32.697Z,28.93
2023-05-19T05:58:37.954Z,28.91
2023-05-19T05:58:43.159Z,28.90
2023-05-19T05:59:19.133Z,29.37
2023-05-19T05:59:24.341Z,29.38
2023-05-19T05:59:29.554Z,29.35
2023-05-19T05:59:34.785Z,29.30
2023-05-19T05:59:39.969Z,29.25
2023-05-19T05:59:45.182Z,29.25
2023-05-19T06:00:21.273Z,29.14
2023-05-19T06:00:26.471Z,29.13
2023-05-19T06:00:32.132Z,29.17
2023-05-19T06:00:37.575Z,29.16
2023-05-19T06:00:42.787Z,29.19
2023-05-19T06:00:47.986Z,29.15
2023-05-19T06:01:24.098Z,29.25
2023-05-19T06:01:29.321Z,29.25
2023-05-19T06:01:35.562Z,29.21
2023-05-19T06:01:40.887Z,29.28
2023-05-19T06:01:46.105Z,29.20
2023-05-19T06:01:51.295Z,29.18
2023-05-19T06:02:27.330Z,29.07
2023-05-19T06:02:32.660Z,29.04
2023-05-19T06:02:38.077Z,29.03
2023-05-19T06:02:43.422Z,29.06
2023-05-19T06:02:48.707Z,29.11
2023-05-19T06:02:54.140Z,29.14
2023-05-19T06:03:30.305Z,28.79
2023-05-19T06:03:35.504Z,28.68
2023-05-19T06:03:40.745Z,28.66
2023-05-19T06:03:46.005Z,28.70
2023-05-19T06:03:51.284Z,28.73
2023-05-19T06:03:56.476Z,28.78
2023-05-19T06:04:32.467Z,28.91
2023-05-19T06:04:37.724Z,28.89
2023-05-19T06:04:42.916Z,28.85
2023-05-19T06:04:48.115Z,28.88
2023-05-19T06:04:53.308Z,28.96
2023-05-19T06:04:58.560Z,28.89
2023-05-19T06:05:34.592Z,28.99
2023-05-19T06:05:39.813Z,29.01
2023-05-19T06:05:45.029Z,29.04
2023-05-19T06:05:50.249Z,29.09
2023-05-19T06:05:55.494Z,29.06
2023-05-19T06:06:00.912Z,28.96
2023-05-19T06:06:36.987Z,28.91
2023-05-19T06:06:42.198Z,28.81
2023-05-19T06:06:47.400Z,28.83
2023-05-19T06:06:52.598Z,28.79
2023-05-19T06:06:57.771Z,28.79
2023-05-19T06:07:02.981Z,28.88
2023-05-19T06:07:38.934Z,28.68
2023-05-19T06:07:44.136Z,28.65
2023-05-19T06:07:49.339Z,28.77
2023-05-19T06:07:54.512Z,28.88
2023-05-19T06:07:59.728Z,28.92
2023-05-19T06:08:04.936Z,28.94
2023-05-19T06:08:41.049Z,29.01
2023-05-19T06:08:46.247Z,29.03
2023-05-19T06:08:51.436Z,28.94
2023-05-19T06:08:56.642Z,28.93
2023-05-19T06:09:01.828Z,28.90
2023-05-19T06:09:07.004Z,28.84
2023-05-19T06:09:43.022Z,28.64
2023-05-19T06:09:48.213Z,28.65
2023-05-19T06:09:53.413Z,28.66
2023-05-19T06:09:58.622Z,28.72
2023-05-19T06:10:03.833Z,28.73
2023-05-19T06:10:09.050Z,28.76
2023-05-19T06:10:47.220Z,28.86
2023-05-19T06:10:52.696Z,28.89
2023-05-19T06:10:57.897Z,28.85
2023-05-19T06:11:03.106Z,28.83
2023-05-19T06:11:08.299Z,28.87
2023-05-19T06:11:13.490Z,28.82
2023-05-19T06:11:49.583Z,29.14
2023-05-19T06:11:54.760Z,29.12
2023-05-19T06:11:59.955Z,29.15
2023-05-19T06:12:05.178Z,29.16
2023-05-19T06:12:10.363Z,29.19
2023-05-19T06:12:15.551Z,29.19
2023-05-19T06:12:51.618Z,29.07
2023-05-19T06:12:56.838Z,29.05
2023-05-19T06:13:02.061Z,29.05
2023-05-19T06:13:07.270Z,29.01
2023-05-19T06:13:12.453Z,29.03
2023-05-19T06:13:17.671Z,29.07
2023-05-19T06:13:53.748Z,29.40
2023-05-19T06:13:58.921Z,29.34
2023-05-19T06:14:04.122Z,29.32
2023-05-19T06:14:09.342Z,29.35
2023-05-19T06:14:14.525Z,29.35
2023-05-19T06:14:19.732Z,29.34
2023-05-19T06:14:55.740Z,29.12
2023-05-19T06:15:00.919Z,29.13